Station TCBM2 - 8573364 - Tolchester Beach, MD Image indicating link to RSS feed of recent meteorological observations for station TCBM2


Conditions at TCBM2 as of
(6:30 am EDT)
1030 GMT on 09/01/2026:
     

Click on the graph icon in the table below to see a time series plot of the last five days of that observation.

5-day plot - Wind Direction Wind Direction (WDIR):SSW ( 200 deg true )
5-day plot - Wind Speed Wind Speed (WSPD): 1.9 kts
5-day plot - Wind Gust Wind Gust (GST): 1.9 kts
5-day plot - Atmospheric Pressure Atmospheric Pressure (PRES):30.02 in
5-day plot - Air Temperature Air Temperature (ATMP): 77.4 °F
5-day plot - Water Temperature Water Temperature (WTMP): 81.0 °F
5-day plot - Wind Speed at 10 Meters Wind Speed at 10 meters (WSPD10M): 1.9 kts
5-day plot - Wind Speed at 20 Meters Wind Speed at 20 meters (WSPD20M): 1.9 kts
5-day plot -  Wind Speed, Wind Gust and Atmospheric Pressure Combined plot of Wind Speed, Gust, and Air Pressure
NOS Water Level Observation Network Water Level
Previous observations
TIME
(EDT)
5-day plot - Wind Direction
WDIR
 
5-day plot - Wind Speed
WSPD
kts
5-day plot - Wind Gust
GST
kts
5-day plot - Wave Height
WVHT
ft
5-day plot - Dominant Wave Period
DPD
sec
5-day plot - Average Wave Period
APD
sec
5-day plot - Mean Wave Direction
MWD
 
5-day plot - Atmospheric Pressure
PRES
in
5-day plot - Pressure Tendency
PTDY
in
5-day plot - Air Temperature
ATMP
°F
5-day plot - Water Temperature
WTMP
°F
5-day plot - Dew Point
DEWP
°F
5-day plot - Salinity
SAL
psu
5-day plot - Visibility
VIS
nmi
5-day plot - Tide (above MLLW)
TIDE
ft
2026-09-01 06:24 amSSW 1.9 2.9----30.02- 77.5 81.1----
2026-09-01 06:18 am S 1.9 2.9----30.01-- 81.1----
2026-09-01 06:12 am S 1.9 2.9----30.01-- 81.1----
2026-09-01 06:06 am S 1.9 2.9----30.01-- 81.3----
2026-09-01 06:00 am S 1.9 2.9----30.01- 77.2 81.3----
2026-09-01 05:54 am S 1.9 4.1----30.01- 77.4 81.3----
2026-09-01 05:48 am S 1.9 4.1----30.02- 77.5 81.3----
2026-09-01 05:42 am S 2.9 4.1----30.01- 77.5 81.3----
2026-09-01 05:36 am S 2.9 5.1----30.02- 77.7 81.3----
2026-09-01 05:30 am S 2.9 4.1----30.02- 77.5 81.3----
2026-09-01 05:24 amSSW 1.9 4.1----30.03- 77.7 81.3----
2026-09-01 05:18 am S 2.9 4.1----30.03-- 81.3----
2026-09-01 05:12 amSSW 2.9 5.1----30.02-- 81.3----
2026-09-01 05:06 amSSW 2.9 4.1----30.03-- 81.5----
2026-09-01 05:00 am S 1.9 4.1----30.03-0.01 77.4 81.5----
2026-09-01 04:54 am S 2.9 4.1----30.02- 77.2 81.5----
2026-09-01 04:48 am S 1.9 2.9----30.02-- 81.5----
2026-09-01 04:42 am S 1.0 2.9----30.02-- 81.5----
2026-09-01 04:36 amSSE 1.9 4.1----30.02-- 81.5----
2026-09-01 04:30 am S 1.9 4.1----30.02- 76.8 81.5----
2026-09-01 04:24 am S 1.0 4.1----30.02- 77.0 81.5----
2026-09-01 04:18 am S 2.9 4.1----30.02-- 81.5----
2026-09-01 04:12 am S 1.9 4.1----30.02-- 81.5----
2026-09-01 04:06 am S 1.9 2.9----30.02-- 81.5----
2026-09-01 04:00 am S 1.9 4.1----30.02-0.04 77.4 81.5----
2026-09-01 03:54 am S 2.9 6.0----30.02- 77.5 81.5----
2026-09-01 03:48 am S 2.9 7.0----30.02- 77.5 81.5----
2026-09-01 03:42 am S 4.1 7.0----30.02- 77.7 81.5----
2026-09-01 03:36 am S 4.1 6.0----30.02- 77.4 81.5----
2026-09-01 03:30 amSSW 4.1 5.1----30.03- 77.2 81.7----
2026-09-01 03:24 amSSW 2.9 5.1----30.03- 76.6 81.7----
2026-09-01 03:18 amSSW 2.9 4.1----30.03- 76.5 81.5----
2026-09-01 03:12 am S 1.9 2.9----30.03- 75.4 81.5----
2026-09-01 03:06 amSSE 1.9 1.9----30.03- 75.0 81.5----
2026-09-01 03:00 amSSE 1.0 1.0------ 74.8 81.5----
2026-09-01 02:54 am- 0.0 1.0------ 75.0 81.7----
2026-09-01 02:48 am- 0.0 1.9----30.04- 75.0 81.7----
2026-09-01 02:42 amESE 1.9 2.9----30.04- 75.0 81.7----
2026-09-01 02:36 am E 1.0 1.9----30.04- 75.7 81.7----
2026-09-01 02:30 amSSE 1.9 2.9----30.04-- 81.7----
2026-09-01 02:24 amSSE 1.9 2.9----30.04-- 81.7----
2026-09-01 02:18 am SE 1.9 2.9----30.04-- 81.7----
2026-09-01 02:12 am E 1.9 4.1----30.04-- 81.7----
2026-09-01 02:06 am E 2.9 4.1----30.04-- 81.7----
2026-09-01 02:00 amESE 2.9 5.1----30.04-0.03 75.9 81.7----
2026-09-01 01:54 am SE 2.9 5.1----30.04- 75.9 81.7----
2026-09-01 01:48 amSSE 2.9 4.1----30.04- 75.7 81.7----
2026-09-01 01:42 amSSE 1.9 4.1----30.05- 75.6 81.7----
2026-09-01 01:36 amSSE 2.9 4.1----30.05- 75.6 81.7----
2026-09-01 01:30 amSSE 2.9 5.1----30.05- 75.6 81.9----
2026-09-01 01:24 amSSE 1.9 2.9----30.05- 75.7 81.7----
2026-09-01 01:18 amESE 1.9 4.1----30.05-- 81.7----
2026-09-01 01:12 am SE 2.9 4.1----30.06-- 81.7----
2026-09-01 01:06 am SE 2.9 5.1----30.06-- 81.7----
2026-09-01 01:00 am SE 2.9 4.1----30.06+0.00 75.4 81.9----
2026-09-01 12:54 am SE 2.9 5.1----30.06- 75.4 81.9----
2026-09-01 12:48 am SE 4.1 5.1----30.06- 75.4 81.9----
2026-09-01 12:42 amESE 2.9 4.1----30.06- 75.4 81.9----
2026-09-01 12:36 am SE 2.9 5.1----30.06- 75.4 81.9----
2026-09-01 12:30 am SE 2.9 5.1----30.06- 75.4 81.9----
2026-09-01 12:24 am SE 2.9 5.1----30.06- 75.4 81.9----
2026-09-01 12:18 am SE 2.9 4.1----30.06-- 81.9----
2026-09-01 12:12 am SE 4.1 5.1----30.06-- 81.9----
2026-09-01 12:06 am SE 4.1 5.1----30.06-- 81.7----
2026-09-01 12:00 amESE 2.9 4.1----30.07+0.01 75.2 81.7----
2026-08-31 11:54 pmESE 2.9 4.1----30.07- 75.0 81.9----
2026-08-31 11:48 pmESE 2.9 4.1----30.07-- 81.9----
2026-08-31 11:42 pmESE 2.9 4.1----30.07-- 81.9----
2026-08-31 11:36 pmESE 1.9 2.9----30.07-- 81.7----
2026-08-31 11:30 pm E 1.9 2.9----30.07- 75.7 81.7----
2026-08-31 11:24 pmESE 2.9 2.9----30.06- 75.6 81.5----
2026-08-31 11:18 pmESE 1.9 2.9------- 81.5----
2026-08-31 11:12 pmESE 1.9 2.9------- 81.5----
2026-08-31 11:06 pm- 0.0 1.9------- 81.5----
2026-08-31 11:00 pm SE 1.0 1.9----30.07+0.01 76.5 81.5----
2026-08-31 10:54 pm SE 1.9 1.9----30.07- 76.5 81.5----
2026-08-31 10:48 pm- 0.0 1.9----30.07- 76.6 81.5----
2026-08-31 10:42 pm SE 1.9 2.9----30.07- 76.6 81.5----
2026-08-31 10:36 pmESE 1.9 4.1----30.07- 76.8 81.5----
2026-08-31 10:30 pm SE 2.9 4.1----30.06- 76.8 81.5----
2026-08-31 10:24 pmSSE 1.9 5.1----30.06- 76.8 81.5----
2026-08-31 10:18 pm SE 4.1 5.1----30.06-- 81.5----
2026-08-31 10:12 pm SE 2.9 5.1----30.06-- 81.5----
2026-08-31 10:06 pmSSE 1.9 4.1----30.06-- 81.5----
2026-08-31 10:00 pm SE 4.1 6.0----30.06-0.01 77.2 81.5----
2026-08-31 09:54 pmSSE 2.9 4.1----30.06- 77.4 81.5----
2026-08-31 09:48 pm SE 2.9 2.9----30.07- 77.4 81.5----
2026-08-31 09:42 pmSSE 2.9 6.0----30.06- 77.5 81.5----
2026-08-31 09:36 pm SE 2.9 5.1----30.06- 77.5 81.5----
2026-08-31 09:30 pm SE 4.1 6.0----30.06- 77.7 81.7----
2026-08-31 09:24 pm SE 4.1 6.0----30.06- 77.9 81.5----
2026-08-31 09:18 pm SE 2.9 5.1----30.06-- 81.5----
2026-08-31 09:12 pm SE 4.1 7.0----30.06-- 81.7----
2026-08-31 09:06 pm SE 5.1 7.0----30.06-- 81.7----
2026-08-31 09:00 pm SE 4.1 8.0----30.06-0.02 78.3 81.7----
2026-08-31 08:54 pmSSE 4.1 6.0----30.06- 78.4 81.7----
2026-08-31 08:48 pmSSE 5.1 7.0----30.05-- 81.7----
2026-08-31 08:42 pm SE 4.1 6.0----30.05-- 81.7----
2026-08-31 08:36 pm SE 5.1 7.0----30.05-- 81.7----
2026-08-31 08:30 pm SE 4.1 6.0----30.05- 78.8 81.7----
2026-08-31 08:24 pm SE 4.1 5.1----30.05- 79.0 81.7----
2026-08-31 08:18 pm SE 2.9 4.1----30.05-- 81.7----
2026-08-31 08:12 pm SE 4.1 5.1----30.05-- 81.7----
2026-08-31 08:06 pm SE 4.1 5.1----30.05-- 81.7----
2026-08-31 08:00 pm SE 1.0 1.9----30.05-0.02 78.6 81.9----
2026-08-31 07:54 pm E 1.9 2.9----30.05- 79.0 81.9----
2026-08-31 07:48 pm E 1.9 2.9----30.05-- 81.9----
2026-08-31 07:42 pmESE 1.9 2.9----30.05-- 81.9----
2026-08-31 07:36 pm SE 1.9 2.9----30.06-- 81.9----
2026-08-31 06:48 pm- 0.0 1.9----30.07- 80.8 81.9----
2026-08-31 06:42 pm- 0.0 1.9----30.07- 81.0 81.9----
2026-08-31 06:36 pm- 0.0 1.0----30.08- 81.3 81.9----
2026-08-31 06:30 pm- 0.0 1.0----30.08- 81.5 81.9----
2026-08-31 06:24 pm- 0.0 1.9----30.08- 81.5 82.0----
2026-08-31 06:18 pm- 0.0 1.9----30.08- 81.5 82.0----
2026-08-31 06:12 pmENE 1.0 1.9----30.08- 81.5 82.0----
2026-08-31 06:06 pm- 0.0 2.9----30.08- 81.5 82.2----
2026-08-31 06:00 pmENE 2.9 4.1----30.08-0.01 81.3 82.2----
2026-08-31 05:54 pm E 1.0 2.9----30.08- 81.5 81.9----
2026-08-31 05:48 pm- 0.0 4.1----30.08- 81.5 81.9----
2026-08-31 05:42 pmENE 1.9 4.1----30.08- 81.3 81.9----
2026-08-31 05:36 pmENE 2.9 4.1----30.08- 81.5 81.9----
2026-08-31 05:30 pm NE 1.9 4.1----30.08- 81.5 81.9----
2026-08-31 05:24 pm N 2.9 5.1----30.08- 81.3 81.9----
2026-08-31 05:18 pmNNE 2.9 5.1----30.08-- 81.9----
2026-08-31 05:12 pmNNE 4.1 6.0----30.08-- 81.9----
2026-08-31 05:06 pmNNE 5.1 7.0----30.08-- 81.9----
2026-08-31 05:00 pmNNE 5.1 8.0----30.08-0.02 81.1 81.7----
2026-08-31 04:54 pmNNE 7.0 8.9----30.08- 80.8 81.7----
2026-08-31 04:48 pm N 7.0 8.9----30.08- 80.6 81.7----
2026-08-31 04:42 pm N 8.9 9.9----30.08- 80.4 81.7----
2026-08-31 04:36 pm N 8.0 9.9----30.08- 80.4 81.7----
2026-08-31 04:30 pm N 8.9 9.9----30.08- 80.2 81.5----
2026-08-31 04:24 pm N 9.9 11.1----30.08- 80.4 81.5----
2026-08-31 04:18 pm N 9.9 11.1----30.08-- 81.5----
2026-08-31 04:12 pm N 8.9 9.9----30.08-- 81.5----
2026-08-31 04:06 pm N 9.9 11.1----30.08-- 81.7----
2026-08-31 04:00 pm N 8.9 9.9----30.08-0.04 80.1 81.7----
2026-08-31 03:54 pm N 8.0 8.9----30.08- 80.1 81.7----
2026-08-31 03:48 pm N 8.0 8.0----30.08- 80.1 81.7----
2026-08-31 03:42 pm N 7.0 8.0----30.08- 80.1 81.7----
2026-08-31 03:36 pm N 8.0 9.9----30.09- 80.1 81.7----
2026-08-31 03:30 pm N 8.0 9.9----30.09- 79.9 81.9----
2026-08-31 03:24 pm N 8.9 9.9----30.09- 79.9 81.7----
2026-08-31 03:18 pm N 8.9 9.9----30.09-- 81.7----
2026-08-31 03:12 pm N 8.9 8.9----30.09-- 81.7----
2026-08-31 03:06 pm N 8.0 8.0----30.09-- 81.9----
2026-08-31 03:00 pm N 8.0 11.1----30.09-0.02 79.7 81.7----
2026-08-31 02:54 pm N 9.9 11.1----30.10- 79.5 81.7----
2026-08-31 02:48 pm N 9.9 9.9----30.10- 79.5 81.5----
2026-08-31 02:42 pm N 8.9 9.9----30.10- 79.9 81.5----
2026-08-31 02:36 pm N 8.9 9.9----30.10- 79.5 81.3----
2026-08-31 02:30 pm N 9.9 12.0----30.10- 79.5 81.3----
2026-08-31 02:24 pm N 9.9 11.1----30.10- 79.3 81.3----
2026-08-31 02:18 pm N 9.9 11.1----30.10-- 81.1----
2026-08-31 02:12 pm N 11.1 12.0----30.10-- 81.1----
2026-08-31 02:06 pm N 9.9 12.0----30.10-- 81.1----
2026-08-31 02:00 pm N 8.9 9.9----30.10-0.02 78.6 81.3----
2026-08-31 01:54 pm N 9.9 12.0----30.10- 78.6 81.3----
2026-08-31 01:48 pm N 11.1 12.0----30.11-- 81.3----
2026-08-31 01:42 pm N 9.9 12.0----30.11-- 81.3----
2026-08-31 01:36 pm N 11.1 11.1----30.11-- 81.1----
2026-08-31 01:30 pm N 9.9 12.0----30.11- 78.3 81.1----
2026-08-31 01:24 pm N 11.1 13.0----30.11- 78.4 81.1----
2026-08-31 01:18 pm N 12.0 14.0----30.11-- 81.1----
2026-08-31 01:12 pm N 12.0 14.0----30.11-- 81.1----
2026-08-31 01:06 pm N 11.1 11.1----30.11-- 81.1----
2026-08-31 01:00 pm N 9.9 12.0----30.11+0.00 78.6 81.1----
2026-08-31 12:54 pm N 9.9 12.0----30.11- 78.4 81.0----
2026-08-31 12:48 pm N 8.9 9.9----30.11- 78.4 81.1----
2026-08-31 12:42 pmNNE 8.0 12.0----30.11- 79.3 81.1----
2026-08-31 12:36 pmNNE 5.1 7.0----30.11- 79.9 81.1----
2026-08-31 12:30 pm E 2.9 11.1----30.11- 81.3 81.1----
2026-08-31 12:24 pmENE 2.9 8.0----30.11- 80.8 81.0----
2026-08-31 12:18 pm N 5.1 15.0----30.11-- 81.0----
2026-08-31 12:12 pmENE 5.1 29.9----30.11-- 81.0----
2026-08-31 12:06 pm NE 2.9 5.1----30.11-- 80.8----
2026-08-31 12:00 pmNNE 2.9 7.0----30.11+0.00 81.5 80.6----
2026-08-31 11:54 amNNW 2.9 20.0----30.11- 81.7 80.6----
2026-08-31 11:48 amSSE 1.9 6.0----30.11- 81.3 80.8----
2026-08-31 11:42 am SE 4.1 7.0----30.11- 81.0 80.8----
2026-08-31 11:36 am E 4.1 6.0----30.11- 81.0 80.8----
2026-08-31 11:30 amESE 5.1 7.0----30.11- 80.8 80.8----
2026-08-31 11:24 am E 4.1 7.0----30.12- 80.6 80.8----
2026-08-31 11:18 am E 5.1 7.0----30.12-- 80.6----
2026-08-31 11:12 am NE 2.9 7.0----30.12-- 80.6----
2026-08-31 11:06 am E 6.0 9.9----30.12-- 80.6----
2026-08-31 11:00 am E 7.0 8.9----30.12+0.01 79.5 80.6----
2026-08-31 10:54 amESE 4.1 8.0----30.12- 80.6 80.6----
2026-08-31 10:48 am E 5.1 7.0----30.12- 79.7 80.6----
2026-08-31 10:42 amENE 4.1 11.1----30.12- 80.2 80.4----
2026-08-31 10:36 am E 6.0 8.0----30.12- 78.6 80.2----
2026-08-31 10:30 am E 5.1 8.0----30.12- 78.4 80.2----
2026-08-31 10:24 am E 4.1 6.0----30.12- 78.3 80.2----
2026-08-31 10:18 am E 2.9 7.0----30.12-- 80.2----
2026-08-31 10:12 am E 7.0 8.9----30.12-- 80.2----
2026-08-31 10:06 am E 5.1 7.0----30.11-- 80.1----
2026-08-31 10:00 am E 6.0 8.9----30.12+0.03 76.6 80.2----
2026-08-31 09:54 am E 5.1 7.0----30.12- 76.6 80.1----
2026-08-31 09:48 am E 2.9 5.1----30.12-- 80.1----
2026-08-31 09:42 am NE 1.9 5.1----30.12-- 80.1----
2026-08-31 09:36 amENE 4.1 7.0----30.12-- 80.1----
2026-08-31 09:30 amENE 2.9 6.0----30.12- 75.9 80.1----
2026-08-31 09:24 amENE 4.1 8.0----30.12- 75.7 80.2----
2026-08-31 09:18 am E 5.1 8.9----30.12-- 80.2----
2026-08-31 09:12 amENE 4.1 8.9----30.12-- 80.2----
2026-08-31 09:06 am E 4.1 8.0----30.12-- 80.2----
2026-08-31 09:00 amENE 4.1 5.1----30.11+0.04 75.9 80.2----
2026-08-31 08:54 amENE 5.1 7.0----30.11- 75.7 80.2----
2026-08-31 08:48 amENE 5.1 8.0----30.11-- 80.1----
2026-08-31 08:42 amENE 1.9 5.1----30.11-- 80.1----
2026-08-31 08:36 amENE 2.9 6.0----30.11-- 80.1----
2026-08-31 08:30 amENE 4.1 7.0----30.11- 75.7 80.1----
2026-08-31 08:24 amENE 4.1 7.0----30.11- 75.6 80.1----
2026-08-31 08:18 am E 2.9 7.0----30.11-- 80.2----
2026-08-31 08:12 amENE 2.9 6.0----30.11-- 80.2----
2026-08-31 08:06 amENE 2.9 8.0----30.11-- 80.2----
2026-08-31 08:00 am E 2.9 7.0----30.11+0.04 75.2 80.4----
2026-08-31 07:54 am E 2.9 5.1----30.11- 74.8 80.4----
2026-08-31 07:48 amENE 1.9 2.9----30.11-- 80.1----
2026-08-31 07:42 amNNE 1.0 4.1----30.11-- 80.1----
2026-08-31 07:36 am NE 1.9 2.9----30.10-- 80.2----
2026-08-31 07:30 amENE 1.0 4.1----30.10- 74.7 80.2----
2026-08-31 07:24 amENE 2.9 5.1----30.10- 74.7 80.4----
2026-08-31 07:18 amENE 4.1 5.1----30.09-- 80.4----
2026-08-31 07:12 am E 2.9 5.1----30.09-- 80.4----
2026-08-31 07:06 am E 2.9 5.1----30.09-- 80.6----
2026-08-31 07:00 am E 4.1 5.1----30.09+0.02 73.9 80.6----
2026-08-31 06:54 amENE 1.9 4.1----30.09- 73.9 80.6----